sensor_id;sensor_type;location;lat;lon;timestamp;P1;durP1;ratioP1;P2;durP2;ratioP2
27543;SDS011;17996;51.056;3.656;2023-04-15T00:00:48;5.72;;;4.28;;
27543;SDS011;17996;51.056;3.656;2023-04-15T00:03:15;8.70;;;4.35;;
27543;SDS011;17996;51.056;3.656;2023-04-15T00:05:41;9.90;;;3.75;;
27543;SDS011;17996;51.056;3.656;2023-04-15T00:08:07;7.38;;;4.00;;
27543;SDS011;17996;51.056;3.656;2023-04-15T00:10:33;5.18;;;3.38;;
27543;SDS011;17996;51.056;3.656;2023-04-15T00:12:58;3.70;;;3.15;;
27543;SDS011;17996;51.056;3.656;2023-04-15T00:15:25;4.82;;;3.30;;
27543;SDS011;17996;51.056;3.656;2023-04-15T00:17:51;3.72;;;3.33;;
27543;SDS011;17996;51.056;3.656;2023-04-15T00:20:17;3.42;;;3.13;;
27543;SDS011;17996;51.056;3.656;2023-04-15T00:22:42;5.57;;;3.67;;
27543;SDS011;17996;51.056;3.656;2023-04-15T00:25:08;6.00;;;3.97;;
27543;SDS011;17996;51.056;3.656;2023-04-15T00:27:34;6.43;;;4.00;;
27543;SDS011;17996;51.056;3.656;2023-04-15T00:29:59;4.32;;;3.55;;
27543;SDS011;17996;51.056;3.656;2023-04-15T00:32:26;6.05;;;3.55;;
27543;SDS011;17996;51.056;3.656;2023-04-15T00:34:51;5.13;;;3.63;;
27543;SDS011;17996;51.056;3.656;2023-04-15T00:37:17;4.65;;;4.20;;
27543;SDS011;17996;51.056;3.656;2023-04-15T00:39:43;6.28;;;4.30;;
27543;SDS011;17996;51.056;3.656;2023-04-15T00:42:09;4.32;;;3.75;;
27543;SDS011;17996;51.056;3.656;2023-04-15T00:44:35;5.05;;;4.40;;
27543;SDS011;17996;51.056;3.656;2023-04-15T00:47:00;4.53;;;3.75;;
27543;SDS011;17996;51.056;3.656;2023-04-15T00:49:28;8.32;;;4.43;;
27543;SDS011;17996;51.056;3.656;2023-04-15T00:51:53;5.40;;;4.65;;
27543;SDS011;17996;51.056;3.656;2023-04-15T00:54:19;7.00;;;4.95;;
27543;SDS011;17996;51.056;3.656;2023-04-15T00:56:46;6.25;;;4.90;;
27543;SDS011;17996;51.056;3.656;2023-04-15T00:59:12;5.03;;;4.53;;
27543;SDS011;17996;51.056;3.656;2023-04-15T01:01:38;6.13;;;5.10;;
27543;SDS011;17996;51.056;3.656;2023-04-15T01:04:05;8.50;;;4.97;;
27543;SDS011;17996;51.056;3.656;2023-04-15T01:06:31;5.28;;;4.78;;
27543;SDS011;17996;51.056;3.656;2023-04-15T01:08:58;7.00;;;5.22;;
27543;SDS011;17996;51.056;3.656;2023-04-15T01:11:24;5.60;;;5.00;;
27543;SDS011;17996;51.056;3.656;2023-04-15T01:13:51;5.57;;;4.85;;
27543;SDS011;17996;51.056;3.656;2023-04-15T01:16:17;9.20;;;5.15;;
27543;SDS011;17996;51.056;3.656;2023-04-15T01:18:43;5.88;;;5.28;;
27543;SDS011;17996;51.056;3.656;2023-04-15T01:21:09;7.85;;;5.60;;
27543;SDS011;17996;51.056;3.656;2023-04-15T01:23:35;6.35;;;5.63;;
27543;SDS011;17996;51.056;3.656;2023-04-15T01:26:03;6.80;;;5.43;;
27543;SDS011;17996;51.056;3.656;2023-04-15T01:28:30;7.65;;;5.50;;
27543;SDS011;17996;51.056;3.656;2023-04-15T01:31:10;6.90;;;5.15;;
27543;SDS011;17996;51.056;3.656;2023-04-15T01:33:37;8.35;;;5.30;;
27543;SDS011;17996;51.056;3.656;2023-04-15T01:36:07;7.22;;;6.18;;
27543;SDS011;17996;51.056;3.656;2023-04-15T01:38:34;7.82;;;5.53;;
27543;SDS011;17996;51.056;3.656;2023-04-15T01:41:01;7.85;;;5.60;;
27543;SDS011;17996;51.056;3.656;2023-04-15T01:43:28;6.75;;;5.18;;
27543;SDS011;17996;51.056;3.656;2023-04-15T01:45:54;6.72;;;5.25;;
27543;SDS011;17996;51.056;3.656;2023-04-15T01:48:20;7.82;;;5.38;;
27543;SDS011;17996;51.056;3.656;2023-04-15T01:50:47;6.57;;;5.40;;
27543;SDS011;17996;51.056;3.656;2023-04-15T01:53:12;7.15;;;5.45;;
27543;SDS011;17996;51.056;3.656;2023-04-15T01:55:38;6.38;;;4.82;;
27543;SDS011;17996;51.056;3.656;2023-04-15T01:58:04;6.90;;;5.10;;
27543;SDS011;17996;51.056;3.656;2023-04-15T02:00:30;9.82;;;4.82;;
27543;SDS011;17996;51.056;3.656;2023-04-15T02:02:56;6.85;;;5.15;;
27543;SDS011;17996;51.056;3.656;2023-04-15T02:05:23;7.13;;;5.30;;
27543;SDS011;17996;51.056;3.656;2023-04-15T02:07:49;9.10;;;5.57;;
27543;SDS011;17996;51.056;3.656;2023-04-15T02:10:15;6.50;;;5.35;;
27543;SDS011;17996;51.056;3.656;2023-04-15T02:12:41;7.18;;;4.97;;
27543;SDS011;17996;51.056;3.656;2023-04-15T02:15:07;9.10;;;5.25;;
27543;SDS011;17996;51.056;3.656;2023-04-15T02:17:34;6.18;;;4.80;;
27543;SDS011;17996;51.056;3.656;2023-04-15T02:20:03;12.52;;;6.20;;
27543;SDS011;17996;51.056;3.656;2023-04-15T02:22:32;13.77;;;5.55;;
27543;SDS011;17996;51.056;3.656;2023-04-15T02:24:58;5.88;;;5.28;;
27543;SDS011;17996;51.056;3.656;2023-04-15T02:27:24;8.63;;;5.55;;
27543;SDS011;17996;51.056;3.656;2023-04-15T02:29:52;8.68;;;6.15;;
27543;SDS011;17996;51.056;3.656;2023-04-15T02:32:17;10.65;;;5.88;;
27543;SDS011;17996;51.056;3.656;2023-04-15T02:34:45;9.13;;;6.47;;
27543;SDS011;17996;51.056;3.656;2023-04-15T02:37:11;8.65;;;7.35;;
27543;SDS011;17996;51.056;3.656;2023-04-15T02:39:37;8.55;;;7.32;;
27543;SDS011;17996;51.056;3.656;2023-04-15T02:42:03;12.48;;;7.72;;
27543;SDS011;17996;51.056;3.656;2023-04-15T02:44:30;8.82;;;7.93;;
27543;SDS011;17996;51.056;3.656;2023-04-15T02:46:56;11.40;;;8.63;;
27543;SDS011;17996;51.056;3.656;2023-04-15T02:49:22;13.10;;;8.48;;
27543;SDS011;17996;51.056;3.656;2023-04-15T02:51:49;13.88;;;7.50;;
27543;SDS011;17996;51.056;3.656;2023-04-15T02:54:18;10.30;;;7.80;;
27543;SDS011;17996;51.056;3.656;2023-04-15T02:56:44;10.52;;;7.68;;
27543;SDS011;17996;51.056;3.656;2023-04-15T02:59:13;10.40;;;7.30;;
27543;SDS011;17996;51.056;3.656;2023-04-15T03:01:39;15.13;;;8.73;;
27543;SDS011;17996;51.056;3.656;2023-04-15T03:04:05;11.20;;;8.77;;
27543;SDS011;17996;51.056;3.656;2023-04-15T03:06:32;13.07;;;9.02;;
27543;SDS011;17996;51.056;3.656;2023-04-15T03:08:59;10.73;;;9.07;;
27543;SDS011;17996;51.056;3.656;2023-04-15T03:11:27;14.07;;;9.65;;
27543;SDS011;17996;51.056;3.656;2023-04-15T03:13:53;13.15;;;9.73;;
27543;SDS011;17996;51.056;3.656;2023-04-15T03:16:19;11.52;;;10.00;;
27543;SDS011;17996;51.056;3.656;2023-04-15T03:18:45;12.25;;;9.98;;
27543;SDS011;17996;51.056;3.656;2023-04-15T03:21:10;12.57;;;10.40;;
27543;SDS011;17996;51.056;3.656;2023-04-15T03:23:36;15.13;;;10.73;;
27543;SDS011;17996;51.056;3.656;2023-04-15T03:26:02;12.30;;;10.93;;
27543;SDS011;17996;51.056;3.656;2023-04-15T03:28:28;14.15;;;10.95;;
27543;SDS011;17996;51.056;3.656;2023-04-15T03:30:54;18.88;;;11.82;;
27543;SDS011;17996;51.056;3.656;2023-04-15T03:33:20;16.83;;;12.57;;
27543;SDS011;17996;51.056;3.656;2023-04-15T03:35:45;17.38;;;12.27;;
27543;SDS011;17996;51.056;3.656;2023-04-15T03:38:11;15.70;;;11.90;;
27543;SDS011;17996;51.056;3.656;2023-04-15T03:40:37;21.50;;;12.52;;
27543;SDS011;17996;51.056;3.656;2023-04-15T03:43:05;16.40;;;11.47;;
27543;SDS011;17996;51.056;3.656;2023-04-15T03:45:31;17.42;;;12.07;;
27543;SDS011;17996;51.056;3.656;2023-04-15T03:47:57;17.08;;;12.75;;
27543;SDS011;17996;51.056;3.656;2023-04-15T03:50:22;17.42;;;12.00;;
27543;SDS011;17996;51.056;3.656;2023-04-15T03:52:48;18.27;;;12.57;;
27543;SDS011;17996;51.056;3.656;2023-04-15T03:55:14;20.40;;;13.00;;
27543;SDS011;17996;51.056;3.656;2023-04-15T03:57:40;24.00;;;13.23;;
27543;SDS011;17996;51.056;3.656;2023-04-15T04:00:06;20.33;;;13.85;;
27543;SDS011;17996;51.056;3.656;2023-04-15T04:02:33;17.23;;;13.75;;
27543;SDS011;17996;51.056;3.656;2023-04-15T04:04:59;22.50;;;14.98;;
27543;SDS011;17996;51.056;3.656;2023-04-15T04:07:25;21.20;;;15.07;;
27543;SDS011;17996;51.056;3.656;2023-04-15T04:09:51;25.88;;;16.27;;
27543;SDS011;17996;51.056;3.656;2023-04-15T04:12:16;23.50;;;17.02;;
27543;SDS011;17996;51.056;3.656;2023-04-15T04:14:42;24.60;;;17.98;;
27543;SDS011;17996;51.056;3.656;2023-04-15T04:17:08;21.52;;;18.23;;
27543;SDS011;17996;51.056;3.656;2023-04-15T04:19:34;22.83;;;17.45;;
27543;SDS011;17996;51.056;3.656;2023-04-15T04:21:59;22.75;;;18.20;;
27543;SDS011;17996;51.056;3.656;2023-04-15T04:24:25;28.92;;;17.85;;
27543;SDS011;17996;51.056;3.656;2023-04-15T04:26:51;26.70;;;16.52;;
27543;SDS011;17996;51.056;3.656;2023-04-15T04:29:16;22.15;;;17.02;;
27543;SDS011;17996;51.056;3.656;2023-04-15T04:31:43;22.27;;;16.30;;
27543;SDS011;17996;51.056;3.656;2023-04-15T04:34:08;28.52;;;15.60;;
27543;SDS011;17996;51.056;3.656;2023-04-15T04:36:34;25.35;;;16.35;;
27543;SDS011;17996;51.056;3.656;2023-04-15T04:39:00;28.48;;;16.42;;
27543;SDS011;17996;51.056;3.656;2023-04-15T04:41:25;22.88;;;16.70;;
27543;SDS011;17996;51.056;3.656;2023-04-15T04:43:51;23.77;;;16.42;;
27543;SDS011;17996;51.056;3.656;2023-04-15T04:46:17;33.67;;;16.92;;
27543;SDS011;17996;51.056;3.656;2023-04-15T04:48:42;25.85;;;17.77;;
27543;SDS011;17996;51.056;3.656;2023-04-15T04:51:08;33.33;;;18.08;;
27543;SDS011;17996;51.056;3.656;2023-04-15T04:53:34;34.05;;;18.85;;
27543;SDS011;17996;51.056;3.656;2023-04-15T04:56:01;33.97;;;19.23;;
27543;SDS011;17996;51.056;3.656;2023-04-15T04:58:27;35.40;;;19.27;;
27543;SDS011;17996;51.056;3.656;2023-04-15T05:00:53;34.28;;;20.65;;
27543;SDS011;17996;51.056;3.656;2023-04-15T05:03:20;30.63;;;19.30;;
27543;SDS011;17996;51.056;3.656;2023-04-15T05:05:45;31.13;;;19.67;;
27543;SDS011;17996;51.056;3.656;2023-04-15T05:08:13;28.83;;;19.15;;
27543;SDS011;17996;51.056;3.656;2023-04-15T05:10:39;30.98;;;19.92;;
27543;SDS011;17996;51.056;3.656;2023-04-15T05:13:05;34.08;;;20.15;;
27543;SDS011;17996;51.056;3.656;2023-04-15T05:15:31;30.52;;;20.33;;
27543;SDS011;17996;51.056;3.656;2023-04-15T05:17:57;32.22;;;20.60;;
27543;SDS011;17996;51.056;3.656;2023-04-15T05:20:23;30.38;;;18.60;;
27543;SDS011;17996;51.056;3.656;2023-04-15T05:22:48;33.30;;;18.27;;
27543;SDS011;17996;51.056;3.656;2023-04-15T05:25:14;33.05;;;18.52;;
27543;SDS011;17996;51.056;3.656;2023-04-15T05:27:40;28.42;;;18.90;;
27543;SDS011;17996;51.056;3.656;2023-04-15T05:30:06;32.90;;;18.75;;
27543;SDS011;17996;51.056;3.656;2023-04-15T05:32:32;31.30;;;19.33;;
27543;SDS011;17996;51.056;3.656;2023-04-15T05:34:58;33.13;;;20.70;;
27543;SDS011;17996;51.056;3.656;2023-04-15T05:37:24;34.85;;;19.05;;
27543;SDS011;17996;51.056;3.656;2023-04-15T05:39:50;28.55;;;17.48;;
27543;SDS011;17996;51.056;3.656;2023-04-15T05:42:16;29.35;;;16.77;;
27543;SDS011;17996;51.056;3.656;2023-04-15T05:44:41;20.00;;;14.60;;
27543;SDS011;17996;51.056;3.656;2023-04-15T05:47:07;27.70;;;15.63;;
27543;SDS011;17996;51.056;3.656;2023-04-15T05:49:34;21.38;;;15.32;;
27543;SDS011;17996;51.056;3.656;2023-04-15T05:52:00;21.35;;;13.52;;
27543;SDS011;17996;51.056;3.656;2023-04-15T05:54:25;26.20;;;15.75;;
27543;SDS011;17996;51.056;3.656;2023-04-15T05:56:52;19.63;;;14.45;;
27543;SDS011;17996;51.056;3.656;2023-04-15T05:59:18;21.90;;;14.90;;
27543;SDS011;17996;51.056;3.656;2023-04-15T06:01:43;23.52;;;15.02;;
27543;SDS011;17996;51.056;3.656;2023-04-15T06:04:09;20.02;;;13.20;;
27543;SDS011;17996;51.056;3.656;2023-04-15T06:06:35;21.27;;;14.35;;
27543;SDS011;17996;51.056;3.656;2023-04-15T06:09:02;27.02;;;13.32;;
27543;SDS011;17996;51.056;3.656;2023-04-15T06:11:28;19.27;;;13.93;;
27543;SDS011;17996;51.056;3.656;2023-04-15T06:13:54;22.85;;;13.27;;
27543;SDS011;17996;51.056;3.656;2023-04-15T06:16:20;25.55;;;13.48;;
27543;SDS011;17996;51.056;3.656;2023-04-15T06:18:47;17.77;;;13.02;;
27543;SDS011;17996;51.056;3.656;2023-04-15T06:21:12;17.63;;;12.35;;
27543;SDS011;17996;51.056;3.656;2023-04-15T06:23:39;20.45;;;13.07;;
27543;SDS011;17996;51.056;3.656;2023-04-15T06:26:07;20.23;;;12.50;;
27543;SDS011;17996;51.056;3.656;2023-04-15T06:28:33;21.00;;;12.98;;
27543;SDS011;17996;51.056;3.656;2023-04-15T06:30:59;23.42;;;12.15;;
27543;SDS011;17996;51.056;3.656;2023-04-15T06:33:26;14.27;;;11.70;;
27543;SDS011;17996;51.056;3.656;2023-04-15T06:35:51;19.52;;;11.77;;
27543;SDS011;17996;51.056;3.656;2023-04-15T06:38:17;20.45;;;12.93;;
27543;SDS011;17996;51.056;3.656;2023-04-15T06:40:43;20.83;;;13.20;;
27543;SDS011;17996;51.056;3.656;2023-04-15T06:43:08;19.25;;;12.27;;
27543;SDS011;17996;51.056;3.656;2023-04-15T06:45:34;24.27;;;11.70;;
27543;SDS011;17996;51.056;3.656;2023-04-15T06:48:00;19.70;;;11.98;;
27543;SDS011;17996;51.056;3.656;2023-04-15T06:50:25;21.67;;;12.57;;
27543;SDS011;17996;51.056;3.656;2023-04-15T06:52:52;18.50;;;11.55;;
27543;SDS011;17996;51.056;3.656;2023-04-15T06:55:18;19.90;;;12.23;;
27543;SDS011;17996;51.056;3.656;2023-04-15T06:57:44;22.65;;;12.85;;
27543;SDS011;17996;51.056;3.656;2023-04-15T07:00:10;24.13;;;12.32;;
27543;SDS011;17996;51.056;3.656;2023-04-15T07:02:36;21.92;;;12.20;;
27543;SDS011;17996;51.056;3.656;2023-04-15T07:05:02;19.27;;;12.10;;
27543;SDS011;17996;51.056;3.656;2023-04-15T07:07:29;21.65;;;12.52;;
27543;SDS011;17996;51.056;3.656;2023-04-15T07:09:55;27.55;;;11.85;;
27543;SDS011;17996;51.056;3.656;2023-04-15T07:12:21;16.92;;;11.85;;
27543;SDS011;17996;51.056;3.656;2023-04-15T07:14:46;23.33;;;12.85;;
27543;SDS011;17996;51.056;3.656;2023-04-15T07:17:13;18.52;;;11.52;;
27543;SDS011;17996;51.056;3.656;2023-04-15T07:19:39;21.95;;;9.70;;
27543;SDS011;17996;51.056;3.656;2023-04-15T07:22:04;18.98;;;9.10;;
27543;SDS011;17996;51.056;3.656;2023-04-15T07:24:30;16.25;;;9.15;;
27543;SDS011;17996;51.056;3.656;2023-04-15T07:26:56;13.88;;;9.05;;
27543;SDS011;17996;51.056;3.656;2023-04-15T07:29:22;17.20;;;9.00;;
27543;SDS011;17996;51.056;3.656;2023-04-15T07:31:48;13.52;;;8.32;;
27543;SDS011;17996;51.056;3.656;2023-04-15T07:34:14;19.75;;;9.35;;
27543;SDS011;17996;51.056;3.656;2023-04-15T07:36:40;12.15;;;7.07;;
27543;SDS011;17996;51.056;3.656;2023-04-15T07:39:07;13.93;;;7.03;;
27543;SDS011;17996;51.056;3.656;2023-04-15T07:41:32;13.20;;;7.10;;
27543;SDS011;17996;51.056;3.656;2023-04-15T07:43:58;15.07;;;7.57;;
27543;SDS011;17996;51.056;3.656;2023-04-15T07:46:24;18.23;;;9.75;;
27543;SDS011;17996;51.056;3.656;2023-04-15T07:48:51;19.48;;;11.40;;
27543;SDS011;17996;51.056;3.656;2023-04-15T07:51:20;19.65;;;11.73;;
27543;SDS011;17996;51.056;3.656;2023-04-15T07:53:48;24.97;;;15.57;;
27543;SDS011;17996;51.056;3.656;2023-04-15T07:56:14;29.55;;;15.10;;
27543;SDS011;17996;51.056;3.656;2023-04-15T07:58:40;24.35;;;14.32;;
27543;SDS011;17996;51.056;3.656;2023-04-15T08:01:06;23.98;;;14.43;;
27543;SDS011;17996;51.056;3.656;2023-04-15T08:03:32;28.92;;;15.70;;
27543;SDS011;17996;51.056;3.656;2023-04-15T08:05:58;25.20;;;15.90;;
27543;SDS011;17996;51.056;3.656;2023-04-15T08:08:23;22.40;;;14.52;;
27543;SDS011;17996;51.056;3.656;2023-04-15T08:10:50;25.30;;;16.42;;
27543;SDS011;17996;51.056;3.656;2023-04-15T08:13:16;24.08;;;15.20;;
27543;SDS011;17996;51.056;3.656;2023-04-15T08:15:42;20.63;;;15.23;;
27543;SDS011;17996;51.056;3.656;2023-04-15T08:18:08;25.13;;;16.40;;
27543;SDS011;17996;51.056;3.656;2023-04-15T08:20:34;23.50;;;14.40;;
27543;SDS011;17996;51.056;3.656;2023-04-15T08:22:59;28.05;;;15.65;;
27543;SDS011;17996;51.056;3.656;2023-04-15T08:25:25;22.50;;;14.65;;
27543;SDS011;17996;51.056;3.656;2023-04-15T08:27:53;27.00;;;14.75;;
27543;SDS011;17996;51.056;3.656;2023-04-15T08:30:19;22.02;;;13.48;;
27543;SDS011;17996;51.056;3.656;2023-04-15T08:32:45;26.60;;;15.18;;
27543;SDS011;17996;51.056;3.656;2023-04-15T08:35:11;22.27;;;13.85;;
27543;SDS011;17996;51.056;3.656;2023-04-15T08:37:37;20.38;;;13.80;;
27543;SDS011;17996;51.056;3.656;2023-04-15T08:40:03;24.70;;;14.57;;
27543;SDS011;17996;51.056;3.656;2023-04-15T08:42:30;25.35;;;14.85;;
27543;SDS011;17996;51.056;3.656;2023-04-15T08:45:00;21.92;;;14.63;;
27543;SDS011;17996;51.056;3.656;2023-04-15T08:47:29;25.30;;;14.98;;
27543;SDS011;17996;51.056;3.656;2023-04-15T08:49:56;20.10;;;14.57;;
27543;SDS011;17996;51.056;3.656;2023-04-15T08:52:25;21.00;;;15.10;;
27543;SDS011;17996;51.056;3.656;2023-04-15T08:54:52;18.33;;;13.35;;
27543;SDS011;17996;51.056;3.656;2023-04-15T08:57:24;21.25;;;13.57;;
27543;SDS011;17996;51.056;3.656;2023-04-15T08:59:51;21.65;;;13.57;;
27543;SDS011;17996;51.056;3.656;2023-04-15T09:02:19;25.48;;;14.20;;
27543;SDS011;17996;51.056;3.656;2023-04-15T09:04:46;19.05;;;14.43;;
27543;SDS011;17996;51.056;3.656;2023-04-15T09:07:11;19.92;;;13.65;;
27543;SDS011;17996;51.056;3.656;2023-04-15T09:09:37;20.38;;;13.48;;
27543;SDS011;17996;51.056;3.656;2023-04-15T09:12:04;17.50;;;13.10;;
27543;SDS011;17996;51.056;3.656;2023-04-15T09:14:30;18.42;;;12.80;;
27543;SDS011;17996;51.056;3.656;2023-04-15T09:19:26;24.55;;;14.10;;
27543;SDS011;17996;51.056;3.656;2023-04-15T09:21:53;29.17;;;16.95;;
27543;SDS011;17996;51.056;3.656;2023-04-15T09:24:23;28.33;;;16.23;;
27543;SDS011;17996;51.056;3.656;2023-04-15T09:26:51;26.40;;;15.77;;
27543;SDS011;17996;51.056;3.656;2023-04-15T09:29:21;23.88;;;15.98;;
27543;SDS011;17996;51.056;3.656;2023-04-15T09:31:49;29.23;;;16.15;;
27543;SDS011;17996;51.056;3.656;2023-04-15T09:34:15;20.38;;;13.48;;
27543;SDS011;17996;51.056;3.656;2023-04-15T09:39:10;19.55;;;14.50;;
27543;SDS011;17996;51.056;3.656;2023-04-15T09:41:36;24.02;;;14.07;;
27543;SDS011;17996;51.056;3.656;2023-04-15T09:44:01;27.45;;;14.77;;
27543;SDS011;17996;51.056;3.656;2023-04-15T09:46:41;27.75;;;18.02;;
27543;SDS011;17996;51.056;3.656;2023-04-15T09:49:08;27.58;;;17.00;;
27543;SDS011;17996;51.056;3.656;2023-04-15T09:51:34;19.67;;;14.27;;
27543;SDS011;17996;51.056;3.656;2023-04-15T09:54:00;27.70;;;16.00;;
27543;SDS011;17996;51.056;3.656;2023-04-15T09:56:36;29.15;;;17.40;;
27543;SDS011;17996;51.056;3.656;2023-04-15T09:59:05;20.35;;;15.07;;
27543;SDS011;17996;51.056;3.656;2023-04-15T10:01:32;22.60;;;15.27;;
27543;SDS011;17996;51.056;3.656;2023-04-15T10:03:58;21.85;;;14.10;;
27543;SDS011;17996;51.056;3.656;2023-04-15T10:08:53;24.92;;;14.65;;
27543;SDS011;17996;51.056;3.656;2023-04-15T10:11:21;24.20;;;14.68;;
27543;SDS011;17996;51.056;3.656;2023-04-15T10:13:49;18.02;;;13.60;;
27543;SDS011;17996;51.056;3.656;2023-04-15T10:16:15;22.30;;;13.48;;
27543;SDS011;17996;51.056;3.656;2023-04-15T10:18:44;19.75;;;13.45;;
27543;SDS011;17996;51.056;3.656;2023-04-15T10:21:12;17.30;;;12.65;;
27543;SDS011;17996;51.056;3.656;2023-04-15T10:23:42;15.45;;;10.85;;
27543;SDS011;17996;51.056;3.656;2023-04-15T10:26:11;16.48;;;11.55;;
27543;SDS011;17996;51.056;3.656;2023-04-15T10:28:39;16.08;;;11.98;;
27543;SDS011;17996;51.056;3.656;2023-04-15T10:31:05;12.70;;;9.80;;
27543;SDS011;17996;51.056;3.656;2023-04-15T10:33:31;16.00;;;11.82;;
27543;SDS011;17996;51.056;3.656;2023-04-15T10:35:59;13.55;;;10.45;;
27543;SDS011;17996;51.056;3.656;2023-04-15T10:41:19;15.20;;;10.07;;
27543;SDS011;17996;51.056;3.656;2023-04-15T10:44:01;24.27;;;12.73;;
27543;SDS011;17996;51.056;3.656;2023-04-15T10:46:41;13.48;;;9.25;;
27543;SDS011;17996;51.056;3.656;2023-04-15T10:49:12;17.08;;;10.40;;
27543;SDS011;17996;51.056;3.656;2023-04-15T10:54:32;17.08;;;9.93;;
27543;SDS011;17996;51.056;3.656;2023-04-15T10:59:29;10.98;;;6.35;;
27543;SDS011;17996;51.056;3.656;2023-04-15T11:01:56;16.00;;;6.15;;
27543;SDS011;17996;51.056;3.656;2023-04-15T11:07:32;9.80;;;6.65;;
27543;SDS011;17996;51.056;3.656;2023-04-15T11:09:58;10.13;;;7.50;;
27543;SDS011;17996;51.056;3.656;2023-04-15T11:12:32;8.95;;;6.82;;
27543;SDS011;17996;51.056;3.656;2023-04-15T11:15:22;10.77;;;6.18;;
27543;SDS011;17996;51.056;3.656;2023-04-15T11:17:58;9.43;;;5.38;;
27543;SDS011;17996;51.056;3.656;2023-04-15T11:20:34;8.98;;;5.70;;
27543;SDS011;17996;51.056;3.656;2023-04-15T11:23:00;13.43;;;6.07;;
27543;SDS011;17996;51.056;3.656;2023-04-15T11:25:29;12.90;;;6.40;;
27543;SDS011;17996;51.056;3.656;2023-04-15T11:27:57;11.88;;;5.55;;
27543;SDS011;17996;51.056;3.656;2023-04-15T11:30:25;8.70;;;5.20;;
27543;SDS011;17996;51.056;3.656;2023-04-15T11:32:53;7.55;;;4.85;;
27543;SDS011;17996;51.056;3.656;2023-04-15T11:35:22;8.30;;;4.95;;
27543;SDS011;17996;51.056;3.656;2023-04-15T11:37:48;8.85;;;5.25;;
27543;SDS011;17996;51.056;3.656;2023-04-15T11:40:15;7.55;;;4.40;;
27543;SDS011;17996;51.056;3.656;2023-04-15T11:43:02;6.43;;;4.05;;
27543;SDS011;17996;51.056;3.656;2023-04-15T11:45:28;6.40;;;4.50;;
27543;SDS011;17996;51.056;3.656;2023-04-15T11:47:54;8.00;;;4.80;;
27543;SDS011;17996;51.056;3.656;2023-04-15T11:50:29;10.95;;;5.43;;
27543;SDS011;17996;51.056;3.656;2023-04-15T11:52:58;6.72;;;5.97;;
27543;SDS011;17996;51.056;3.656;2023-04-15T11:55:25;8.88;;;6.40;;
27543;SDS011;17996;51.056;3.656;2023-04-15T12:00:35;6.78;;;4.80;;
27543;SDS011;17996;51.056;3.656;2023-04-15T12:06:03;12.23;;;7.30;;
27543;SDS011;17996;51.056;3.656;2023-04-15T12:09:14;13.98;;;9.15;;
27543;SDS011;17996;51.056;3.656;2023-04-15T12:16:44;11.23;;;7.97;;
27543;SDS011;17996;51.056;3.656;2023-04-15T12:19:13;17.52;;;7.18;;
27543;SDS011;17996;51.056;3.656;2023-04-15T12:21:43;7.72;;;6.85;;
27543;SDS011;17996;51.056;3.656;2023-04-15T12:24:11;11.00;;;6.68;;
27543;SDS011;17996;51.056;3.656;2023-04-15T12:29:14;15.48;;;7.40;;
27543;SDS011;17996;51.056;3.656;2023-04-15T12:31:48;7.95;;;6.43;;
27543;SDS011;17996;51.056;3.656;2023-04-15T12:34:24;7.68;;;4.93;;
27543;SDS011;17996;51.056;3.656;2023-04-15T12:36:55;10.27;;;5.85;;
27543;SDS011;17996;51.056;3.656;2023-04-15T12:39:23;11.27;;;5.32;;
27543;SDS011;17996;51.056;3.656;2023-04-15T12:41:50;14.57;;;7.00;;
27543;SDS011;17996;51.056;3.656;2023-04-15T12:44:17;8.10;;;5.55;;
27543;SDS011;17996;51.056;3.656;2023-04-15T12:46:43;8.30;;;5.90;;
27543;SDS011;17996;51.056;3.656;2023-04-15T12:49:10;8.57;;;5.10;;
27543;SDS011;17996;51.056;3.656;2023-04-15T12:51:35;8.68;;;6.07;;
27543;SDS011;17996;51.056;3.656;2023-04-15T12:54:02;9.05;;;6.28;;
27543;SDS011;17996;51.056;3.656;2023-04-15T12:56:28;11.15;;;6.07;;
27543;SDS011;17996;51.056;3.656;2023-04-15T12:58:54;8.27;;;6.47;;
27543;SDS011;17996;51.056;3.656;2023-04-15T13:01:20;12.38;;;5.72;;
27543;SDS011;17996;51.056;3.656;2023-04-15T13:03:46;9.48;;;5.90;;
27543;SDS011;17996;51.056;3.656;2023-04-15T13:06:12;10.25;;;5.57;;
27543;SDS011;17996;51.056;3.656;2023-04-15T13:08:37;11.27;;;5.80;;
27543;SDS011;17996;51.056;3.656;2023-04-15T13:11:04;22.42;;;7.63;;
27543;SDS011;17996;51.056;3.656;2023-04-15T13:13:30;14.50;;;6.80;;
27543;SDS011;17996;51.056;3.656;2023-04-15T13:15:56;8.85;;;7.00;;
27543;SDS011;17996;51.056;3.656;2023-04-15T13:18:22;8.35;;;6.00;;
27543;SDS011;17996;51.056;3.656;2023-04-15T13:20:48;9.30;;;6.35;;
27543;SDS011;17996;51.056;3.656;2023-04-15T13:23:15;8.38;;;5.68;;
27543;SDS011;17996;51.056;3.656;2023-04-15T13:25:41;11.25;;;7.25;;
27543;SDS011;17996;51.056;3.656;2023-04-15T13:28:07;11.52;;;6.18;;
27543;SDS011;17996;51.056;3.656;2023-04-15T13:30:36;8.95;;;5.50;;
27543;SDS011;17996;51.056;3.656;2023-04-15T13:33:03;10.32;;;7.15;;
27543;SDS011;17996;51.056;3.656;2023-04-15T13:35:30;10.45;;;7.70;;
27543;SDS011;17996;51.056;3.656;2023-04-15T13:37:56;11.85;;;8.30;;
27543;SDS011;17996;51.056;3.656;2023-04-15T13:40:22;13.85;;;9.45;;
27543;SDS011;17996;51.056;3.656;2023-04-15T13:42:49;14.60;;;8.80;;
27543;SDS011;17996;51.056;3.656;2023-04-15T13:47:42;12.80;;;9.15;;
27543;SDS011;17996;51.056;3.656;2023-04-15T13:50:08;16.63;;;9.45;;
27543;SDS011;17996;51.056;3.656;2023-04-15T13:52:34;19.05;;;9.73;;
27543;SDS011;17996;51.056;3.656;2023-04-15T13:55:01;13.88;;;10.38;;
27543;SDS011;17996;51.056;3.656;2023-04-15T13:57:30;13.85;;;10.13;;
27543;SDS011;17996;51.056;3.656;2023-04-15T13:59:56;13.23;;;8.55;;
27543;SDS011;17996;51.056;3.656;2023-04-15T14:02:22;14.00;;;9.07;;
27543;SDS011;17996;51.056;3.656;2023-04-15T14:04:48;15.23;;;9.25;;
27543;SDS011;17996;51.056;3.656;2023-04-15T14:07:13;15.43;;;9.55;;
27543;SDS011;17996;51.056;3.656;2023-04-15T14:09:39;14.50;;;8.57;;
27543;SDS011;17996;51.056;3.656;2023-04-15T14:12:05;15.77;;;8.60;;
27543;SDS011;17996;51.056;3.656;2023-04-15T14:14:30;14.98;;;8.52;;
27543;SDS011;17996;51.056;3.656;2023-04-15T14:16:56;12.40;;;9.40;;
27543;SDS011;17996;51.056;3.656;2023-04-15T14:19:23;14.60;;;10.13;;
27543;SDS011;17996;51.056;3.656;2023-04-15T14:21:48;14.52;;;9.88;;
27543;SDS011;17996;51.056;3.656;2023-04-15T14:24:14;12.07;;;9.30;;
27543;SDS011;17996;51.056;3.656;2023-04-15T14:26:40;18.90;;;9.23;;
27543;SDS011;17996;51.056;3.656;2023-04-15T14:29:07;13.82;;;9.63;;
27543;SDS011;17996;51.056;3.656;2023-04-15T14:31:33;11.27;;;8.25;;
27543;SDS011;17996;51.056;3.656;2023-04-15T14:33:59;14.60;;;8.57;;
27543;SDS011;17996;51.056;3.656;2023-04-15T14:36:25;13.57;;;7.80;;
27543;SDS011;17996;51.056;3.656;2023-04-15T14:38:51;12.35;;;7.50;;
27543;SDS011;17996;51.056;3.656;2023-04-15T14:41:16;11.70;;;6.65;;
27543;SDS011;17996;51.056;3.656;2023-04-15T14:43:42;7.85;;;5.82;;
27543;SDS011;17996;51.056;3.656;2023-04-15T14:46:09;14.70;;;7.20;;
27543;SDS011;17996;51.056;3.656;2023-04-15T14:48:35;12.27;;;6.10;;
27543;SDS011;17996;51.056;3.656;2023-04-15T14:51:00;12.77;;;5.63;;
27543;SDS011;17996;51.056;3.656;2023-04-15T14:53:26;10.30;;;5.35;;
27543;SDS011;17996;51.056;3.656;2023-04-15T14:55:51;9.75;;;4.82;;
27543;SDS011;17996;51.056;3.656;2023-04-15T14:58:17;7.90;;;4.15;;
27543;SDS011;17996;51.056;3.656;2023-04-15T15:00:43;8.38;;;4.00;;
27543;SDS011;17996;51.056;3.656;2023-04-15T15:03:09;10.82;;;3.70;;